Waikoloa, HI

1:14 AM HST on July 04, 2015 (GMT -1000)
Waikoloa Village | | Change Station
CLOSE
Current Station
Personal Weather Station
Location: Waikoloa, HI
Elevation: 1007 ft
Nearby Weather Stations

Elev 1007 ft 19.95 °N, 155.78 °W | Updated 4 minutes ago

Overcast
Overcast
72.0 °F
Feels Like 75 °F
N
6.7
Wind Variable Wind from SE
Gusts 9.8 mph

Today
High -- | Low -- °F
--% Chance of Precip.
Yesterday
High -- | Low -- °F
Precip. -- in
5:48 AM 7:06 PM
Waning Gibbous, 93% visible
Pressure 29.91 in
Visibility 10.0 miles
Clouds Scattered Clouds 2800 ft
Mostly Cloudy 3900 ft
Overcast 5500 ft
Heat Index 75 °F
Dew Point 60 °F
Humidity 67%
Rainfall 0.00 in
Snow Depth Not available.
UV 0 out of 12
Pollen Not available.
Air Quality Not available.
Flu Activity Not available.
SPECI PHKO 041101Z AUTO 23007KT 10SM SCT028 BKN039 OVC055 27/23 A2991 RMK AO2 TSNO

More Conditions Fewer Conditions

Pressure 29.91 in
Visibility 10.0 miles
Clouds Scattered Clouds 2800 ft
Mostly Cloudy 3900 ft
Overcast 5500 ft
Heat Index 75 °F
Dew Point 60 °F
Humidity 67%
Rainfall 0.00 in
Snow Depth Not available.
UV 0 out of 12
Pollen Not available.
Air Quality Not available.
Flu Activity Not available.
SPECI PHKO 041101Z AUTO 23007KT 10SM SCT028 BKN039 OVC055 27/23 A2991 RMK AO2 TSNO

More Conditions Fewer Conditions

10-Day Weather Forecast

×

Almanac

Astronomy

Jul. 04, 2015 Rise Set
Actual Time
Civil Twilight
Nautical Twilight
Astronomical Twilight
Moon
Length of Visible Light
Length of Day
Tomorrow will be .
, % of the Moon is Illuminated

Today's Extremes

State Highs State Lows

Community

WunderPhotos

Upload Photos

1,834,939 photos uploaded!

WunderBlogs® & News

Nearby

Air Quality

  Air Quality AQ Index Pollutant
Not available.

Snow Depth

Station Depth Elevation

Earthquake Activity

City Distance Mag. Time & Date
Minimum magnitude displayed is 2.5.

Coastal Water Temperatures

Place Temperature

Stations

Nearby Weather Stations

Station Location Temp. Windchill Dew Point Humidity Wind Precip. Elev Updated Type